sensor_id;sensor_type;location;lat;lon;timestamp;P1;durP1;ratioP1;P2;durP2;ratioP2
32080;SDS011;18593;51.426;7.030;2023-11-19T00:01:44;11.32;;;7.05;;
32080;SDS011;18593;51.426;7.030;2023-11-19T00:04:12;12.85;;;8.52;;
32080;SDS011;18593;51.426;7.030;2023-11-19T00:06:41;12.77;;;8.80;;
32080;SDS011;18593;51.426;7.030;2023-11-19T00:09:09;12.75;;;9.35;;
32080;SDS011;18593;51.426;7.030;2023-11-19T00:11:37;15.93;;;10.35;;
32080;SDS011;18593;51.426;7.030;2023-11-19T00:14:04;16.02;;;10.25;;
32080;SDS011;18593;51.426;7.030;2023-11-19T00:16:33;15.77;;;10.43;;
32080;SDS011;18593;51.426;7.030;2023-11-19T00:19:01;15.40;;;10.45;;
32080;SDS011;18593;51.426;7.030;2023-11-19T00:21:29;19.73;;;11.50;;
32080;SDS011;18593;51.426;7.030;2023-11-19T00:24:00;19.70;;;12.35;;
32080;SDS011;18593;51.426;7.030;2023-11-19T00:26:27;18.63;;;11.30;;
32080;SDS011;18593;51.426;7.030;2023-11-19T00:28:56;20.73;;;10.95;;
32080;SDS011;18593;51.426;7.030;2023-11-19T00:31:24;16.80;;;10.40;;
32080;SDS011;18593;51.426;7.030;2023-11-19T00:33:53;18.83;;;11.35;;
32080;SDS011;18593;51.426;7.030;2023-11-19T00:36:20;20.40;;;11.50;;
32080;SDS011;18593;51.426;7.030;2023-11-19T00:38:50;20.35;;;11.52;;
32080;SDS011;18593;51.426;7.030;2023-11-19T00:41:20;18.25;;;12.60;;
32080;SDS011;18593;51.426;7.030;2023-11-19T00:43:47;19.88;;;12.60;;
32080;SDS011;18593;51.426;7.030;2023-11-19T00:46:15;18.67;;;11.68;;
32080;SDS011;18593;51.426;7.030;2023-11-19T00:48:43;17.73;;;11.60;;
32080;SDS011;18593;51.426;7.030;2023-11-19T00:51:12;21.80;;;13.15;;
32080;SDS011;18593;51.426;7.030;2023-11-19T00:53:40;21.02;;;13.27;;
32080;SDS011;18593;51.426;7.030;2023-11-19T00:56:07;21.58;;;13.15;;
32080;SDS011;18593;51.426;7.030;2023-11-19T00:58:38;20.58;;;13.57;;
32080;SDS011;18593;51.426;7.030;2023-11-19T01:01:07;16.90;;;11.40;;
32080;SDS011;18593;51.426;7.030;2023-11-19T01:03:36;15.13;;;10.32;;
32080;SDS011;18593;51.426;7.030;2023-11-19T01:06:04;23.65;;;13.13;;
32080;SDS011;18593;51.426;7.030;2023-11-19T01:08:33;20.55;;;11.65;;
32080;SDS011;18593;51.426;7.030;2023-11-19T01:11:01;17.90;;;10.20;;
32080;SDS011;18593;51.426;7.030;2023-11-19T01:13:30;18.00;;;10.30;;
32080;SDS011;18593;51.426;7.030;2023-11-19T01:15:59;13.48;;;9.38;;
32080;SDS011;18593;51.426;7.030;2023-11-19T01:18:27;15.65;;;8.82;;
32080;SDS011;18593;51.426;7.030;2023-11-19T01:20:54;14.73;;;8.95;;
32080;SDS011;18593;51.426;7.030;2023-11-19T01:23:24;12.55;;;7.70;;
32080;SDS011;18593;51.426;7.030;2023-11-19T01:25:51;15.98;;;9.25;;
32080;SDS011;18593;51.426;7.030;2023-11-19T01:28:19;14.57;;;8.52;;
32080;SDS011;18593;51.426;7.030;2023-11-19T01:30:46;15.82;;;8.30;;
32080;SDS011;18593;51.426;7.030;2023-11-19T01:33:18;12.25;;;7.57;;
32080;SDS011;18593;51.426;7.030;2023-11-19T01:35:46;13.98;;;7.18;;
32080;SDS011;18593;51.426;7.030;2023-11-19T01:38:14;12.40;;;7.35;;
32080;SDS011;18593;51.426;7.030;2023-11-19T01:40:41;14.93;;;7.05;;
32080;SDS011;18593;51.426;7.030;2023-11-19T01:43:09;12.25;;;6.93;;
32080;SDS011;18593;51.426;7.030;2023-11-19T01:45:39;13.77;;;7.35;;
32080;SDS011;18593;51.426;7.030;2023-11-19T01:48:07;14.20;;;6.55;;
32080;SDS011;18593;51.426;7.030;2023-11-19T01:50:38;13.60;;;7.07;;
32080;SDS011;18593;51.426;7.030;2023-11-19T01:53:06;12.02;;;6.50;;
32080;SDS011;18593;51.426;7.030;2023-11-19T01:55:34;13.15;;;6.90;;
32080;SDS011;18593;51.426;7.030;2023-11-19T01:58:02;9.50;;;5.78;;
32080;SDS011;18593;51.426;7.030;2023-11-19T02:00:31;13.75;;;5.97;;
32080;SDS011;18593;51.426;7.030;2023-11-19T02:02:59;12.65;;;5.97;;
32080;SDS011;18593;51.426;7.030;2023-11-19T02:05:28;12.15;;;5.88;;
32080;SDS011;18593;51.426;7.030;2023-11-19T02:07:59;12.40;;;6.47;;
32080;SDS011;18593;51.426;7.030;2023-11-19T02:10:26;13.38;;;6.60;;
32080;SDS011;18593;51.426;7.030;2023-11-19T02:12:57;10.57;;;6.72;;
32080;SDS011;18593;51.426;7.030;2023-11-19T02:15:25;12.45;;;6.38;;
32080;SDS011;18593;51.426;7.030;2023-11-19T02:17:53;9.18;;;5.85;;
32080;SDS011;18593;51.426;7.030;2023-11-19T02:20:20;14.68;;;6.50;;
32080;SDS011;18593;51.426;7.030;2023-11-19T02:22:49;13.95;;;6.30;;
32080;SDS011;18593;51.426;7.030;2023-11-19T02:25:20;16.15;;;5.75;;
32080;SDS011;18593;51.426;7.030;2023-11-19T02:28:01;11.00;;;5.40;;
32080;SDS011;18593;51.426;7.030;2023-11-19T02:30:30;17.65;;;5.38;;
32080;SDS011;18593;51.426;7.030;2023-11-19T02:32:58;14.00;;;5.13;;
32080;SDS011;18593;51.426;7.030;2023-11-19T02:35:31;12.52;;;5.45;;
32080;SDS011;18593;51.426;7.030;2023-11-19T02:37:59;14.00;;;5.07;;
32080;SDS011;18593;51.426;7.030;2023-11-19T02:40:29;14.40;;;4.38;;
32080;SDS011;18593;51.426;7.030;2023-11-19T02:42:57;15.60;;;4.50;;
32080;SDS011;18593;51.426;7.030;2023-11-19T02:45:26;14.85;;;4.88;;
32080;SDS011;18593;51.426;7.030;2023-11-19T02:47:56;14.98;;;5.82;;
32080;SDS011;18593;51.426;7.030;2023-11-19T02:50:27;13.93;;;4.90;;
32080;SDS011;18593;51.426;7.030;2023-11-19T02:52:56;24.95;;;5.88;;
32080;SDS011;18593;51.426;7.030;2023-11-19T02:55:24;20.05;;;4.78;;
32080;SDS011;18593;51.426;7.030;2023-11-19T02:57:55;15.73;;;5.70;;
32080;SDS011;18593;51.426;7.030;2023-11-19T03:00:26;14.25;;;5.60;;
32080;SDS011;18593;51.426;7.030;2023-11-19T03:03:00;11.60;;;4.60;;
32080;SDS011;18593;51.426;7.030;2023-11-19T03:05:43;11.52;;;4.63;;
32080;SDS011;18593;51.426;7.030;2023-11-19T03:08:12;21.73;;;5.70;;
32080;SDS011;18593;51.426;7.030;2023-11-19T03:10:39;12.65;;;4.47;;
32080;SDS011;18593;51.426;7.030;2023-11-19T03:13:07;20.17;;;5.22;;
32080;SDS011;18593;51.426;7.030;2023-11-19T03:15:43;18.90;;;5.15;;
32080;SDS011;18593;51.426;7.030;2023-11-19T03:18:11;17.05;;;5.15;;
32080;SDS011;18593;51.426;7.030;2023-11-19T03:20:39;24.20;;;4.80;;
32080;SDS011;18593;51.426;7.030;2023-11-19T03:23:06;18.58;;;5.60;;
32080;SDS011;18593;51.426;7.030;2023-11-19T03:25:34;17.45;;;5.60;;
32080;SDS011;18593;51.426;7.030;2023-11-19T03:28:04;17.45;;;6.03;;
32080;SDS011;18593;51.426;7.030;2023-11-19T03:30:31;19.30;;;5.53;;
32080;SDS011;18593;51.426;7.030;2023-11-19T03:33:00;22.05;;;6.38;;
32080;SDS011;18593;51.426;7.030;2023-11-19T03:35:28;25.42;;;5.95;;
32080;SDS011;18593;51.426;7.030;2023-11-19T03:37:56;23.55;;;5.40;;
32080;SDS011;18593;51.426;7.030;2023-11-19T03:40:23;22.65;;;5.97;;
32080;SDS011;18593;51.426;7.030;2023-11-19T03:42:52;24.95;;;6.50;;
32080;SDS011;18593;51.426;7.030;2023-11-19T03:45:22;21.15;;;5.95;;
32080;SDS011;18593;51.426;7.030;2023-11-19T03:47:50;28.45;;;6.18;;
32080;SDS011;18593;51.426;7.030;2023-11-19T03:50:19;25.77;;;6.32;;
32080;SDS011;18593;51.426;7.030;2023-11-19T03:52:46;23.35;;;5.82;;
32080;SDS011;18593;51.426;7.030;2023-11-19T03:55:14;29.13;;;6.53;;
32080;SDS011;18593;51.426;7.030;2023-11-19T03:57:42;27.85;;;5.70;;
32080;SDS011;18593;51.426;7.030;2023-11-19T04:00:09;38.20;;;6.30;;
32080;SDS011;18593;51.426;7.030;2023-11-19T04:02:39;33.92;;;5.60;;
32080;SDS011;18593;51.426;7.030;2023-11-19T04:05:07;33.08;;;5.22;;
32080;SDS011;18593;51.426;7.030;2023-11-19T04:07:37;26.92;;;5.53;;
32080;SDS011;18593;51.426;7.030;2023-11-19T04:10:07;26.90;;;6.22;;
32080;SDS011;18593;51.426;7.030;2023-11-19T04:12:36;24.65;;;6.18;;
32080;SDS011;18593;51.426;7.030;2023-11-19T04:15:04;27.60;;;5.68;;
32080;SDS011;18593;51.426;7.030;2023-11-19T04:17:33;33.47;;;5.90;;
32080;SDS011;18593;51.426;7.030;2023-11-19T04:20:01;22.80;;;6.13;;
32080;SDS011;18593;51.426;7.030;2023-11-19T04:22:29;29.95;;;5.80;;
32080;SDS011;18593;51.426;7.030;2023-11-19T04:24:58;28.10;;;5.68;;
32080;SDS011;18593;51.426;7.030;2023-11-19T04:27:26;28.75;;;5.55;;
32080;SDS011;18593;51.426;7.030;2023-11-19T04:29:54;33.10;;;4.93;;
32080;SDS011;18593;51.426;7.030;2023-11-19T04:32:21;23.98;;;5.05;;
32080;SDS011;18593;51.426;7.030;2023-11-19T04:34:50;32.25;;;6.05;;
32080;SDS011;18593;51.426;7.030;2023-11-19T04:37:18;29.63;;;5.55;;
32080;SDS011;18593;51.426;7.030;2023-11-19T04:39:46;34.53;;;5.20;;
32080;SDS011;18593;51.426;7.030;2023-11-19T04:42:14;33.35;;;6.18;;
32080;SDS011;18593;51.426;7.030;2023-11-19T04:44:42;35.33;;;6.30;;
32080;SDS011;18593;51.426;7.030;2023-11-19T04:47:10;37.28;;;5.35;;
32080;SDS011;18593;51.426;7.030;2023-11-19T04:49:39;43.17;;;6.97;;
32080;SDS011;18593;51.426;7.030;2023-11-19T04:52:08;37.20;;;5.97;;
32080;SDS011;18593;51.426;7.030;2023-11-19T04:54:40;34.42;;;5.78;;
32080;SDS011;18593;51.426;7.030;2023-11-19T04:57:08;30.33;;;5.68;;
32080;SDS011;18593;51.426;7.030;2023-11-19T04:59:38;39.95;;;6.05;;
32080;SDS011;18593;51.426;7.030;2023-11-19T05:02:06;39.78;;;5.13;;
32080;SDS011;18593;51.426;7.030;2023-11-19T05:04:34;27.45;;;5.68;;
32080;SDS011;18593;51.426;7.030;2023-11-19T05:07:03;39.83;;;6.35;;
32080;SDS011;18593;51.426;7.030;2023-11-19T05:09:31;40.70;;;6.15;;
32080;SDS011;18593;51.426;7.030;2023-11-19T05:11:58;41.08;;;5.38;;
32080;SDS011;18593;51.426;7.030;2023-11-19T05:14:27;34.88;;;6.10;;
32080;SDS011;18593;51.426;7.030;2023-11-19T05:16:55;43.45;;;5.85;;
32080;SDS011;18593;51.426;7.030;2023-11-19T05:19:23;30.00;;;5.60;;
32080;SDS011;18593;51.426;7.030;2023-11-19T05:21:50;35.63;;;5.88;;
32080;SDS011;18593;51.426;7.030;2023-11-19T05:24:18;38.42;;;6.88;;
32080;SDS011;18593;51.426;7.030;2023-11-19T05:26:46;31.27;;;5.03;;
32080;SDS011;18593;51.426;7.030;2023-11-19T05:29:16;37.22;;;6.35;;
32080;SDS011;18593;51.426;7.030;2023-11-19T05:31:43;42.13;;;6.40;;
32080;SDS011;18593;51.426;7.030;2023-11-19T05:34:12;35.92;;;5.63;;
32080;SDS011;18593;51.426;7.030;2023-11-19T05:36:40;35.40;;;6.40;;
32080;SDS011;18593;51.426;7.030;2023-11-19T05:39:08;34.17;;;5.38;;
32080;SDS011;18593;51.426;7.030;2023-11-19T05:41:36;39.63;;;5.55;;
32080;SDS011;18593;51.426;7.030;2023-11-19T05:44:04;37.03;;;5.28;;
32080;SDS011;18593;51.426;7.030;2023-11-19T05:46:31;32.80;;;4.95;;
32080;SDS011;18593;51.426;7.030;2023-11-19T05:49:05;35.72;;;5.35;;
32080;SDS011;18593;51.426;7.030;2023-11-19T05:51:37;41.45;;;5.85;;
32080;SDS011;18593;51.426;7.030;2023-11-19T05:54:05;33.20;;;5.60;;
32080;SDS011;18593;51.426;7.030;2023-11-19T05:56:33;33.33;;;5.78;;
32080;SDS011;18593;51.426;7.030;2023-11-19T05:59:01;33.92;;;5.93;;
32080;SDS011;18593;51.426;7.030;2023-11-19T06:04:01;44.22;;;6.43;;
32080;SDS011;18593;51.426;7.030;2023-11-19T06:06:32;30.90;;;5.07;;
32080;SDS011;18593;51.426;7.030;2023-11-19T06:09:01;41.05;;;6.82;;
32080;SDS011;18593;51.426;7.030;2023-11-19T06:11:31;31.10;;;5.22;;
32080;SDS011;18593;51.426;7.030;2023-11-19T06:14:01;34.60;;;5.63;;
32080;SDS011;18593;51.426;7.030;2023-11-19T06:16:30;29.58;;;4.82;;
32080;SDS011;18593;51.426;7.030;2023-11-19T06:18:58;35.17;;;5.22;;
32080;SDS011;18593;51.426;7.030;2023-11-19T06:21:25;35.08;;;5.82;;
32080;SDS011;18593;51.426;7.030;2023-11-19T06:23:53;38.22;;;5.78;;
32080;SDS011;18593;51.426;7.030;2023-11-19T06:26:22;42.15;;;6.43;;
32080;SDS011;18593;51.426;7.030;2023-11-19T06:28:50;36.78;;;6.20;;
32080;SDS011;18593;51.426;7.030;2023-11-19T06:31:17;35.20;;;5.45;;
32080;SDS011;18593;51.426;7.030;2023-11-19T06:33:45;26.38;;;5.40;;
32080;SDS011;18593;51.426;7.030;2023-11-19T06:36:14;25.90;;;5.13;;
32080;SDS011;18593;51.426;7.030;2023-11-19T06:38:42;32.13;;;5.20;;
32080;SDS011;18593;51.426;7.030;2023-11-19T06:41:10;33.17;;;5.32;;
32080;SDS011;18593;51.426;7.030;2023-11-19T06:43:39;32.47;;;5.45;;
32080;SDS011;18593;51.426;7.030;2023-11-19T06:46:13;32.38;;;5.20;;
32080;SDS011;18593;51.426;7.030;2023-11-19T06:48:44;29.75;;;5.50;;
32080;SDS011;18593;51.426;7.030;2023-11-19T06:51:11;30.85;;;6.22;;
32080;SDS011;18593;51.426;7.030;2023-11-19T06:53:39;35.63;;;4.82;;
32080;SDS011;18593;51.426;7.030;2023-11-19T06:56:16;42.90;;;5.93;;
32080;SDS011;18593;51.426;7.030;2023-11-19T06:58:47;37.45;;;5.25;;
32080;SDS011;18593;51.426;7.030;2023-11-19T07:01:15;42.28;;;6.18;;
32080;SDS011;18593;51.426;7.030;2023-11-19T07:03:44;43.50;;;5.70;;
32080;SDS011;18593;51.426;7.030;2023-11-19T07:06:12;33.95;;;5.32;;
32080;SDS011;18593;51.426;7.030;2023-11-19T07:08:40;34.28;;;5.65;;
32080;SDS011;18593;51.426;7.030;2023-11-19T07:11:10;35.10;;;5.13;;
32080;SDS011;18593;51.426;7.030;2023-11-19T07:13:39;30.52;;;5.03;;
32080;SDS011;18593;51.426;7.030;2023-11-19T07:16:09;36.70;;;5.38;;
32080;SDS011;18593;51.426;7.030;2023-11-19T07:18:36;27.35;;;5.78;;
32080;SDS011;18593;51.426;7.030;2023-11-19T07:21:04;32.45;;;5.70;;
32080;SDS011;18593;51.426;7.030;2023-11-19T07:23:35;36.53;;;5.68;;
32080;SDS011;18593;51.426;7.030;2023-11-19T07:26:04;28.33;;;5.50;;
32080;SDS011;18593;51.426;7.030;2023-11-19T07:31:01;30.70;;;5.38;;
32080;SDS011;18593;51.426;7.030;2023-11-19T07:33:31;26.83;;;4.80;;
32080;SDS011;18593;51.426;7.030;2023-11-19T07:35:59;35.90;;;4.75;;
32080;SDS011;18593;51.426;7.030;2023-11-19T07:38:26;35.42;;;5.50;;
32080;SDS011;18593;51.426;7.030;2023-11-19T07:40:54;35.67;;;5.80;;
32080;SDS011;18593;51.426;7.030;2023-11-19T07:43:22;35.45;;;5.13;;
32080;SDS011;18593;51.426;7.030;2023-11-19T07:45:49;36.53;;;5.18;;
32080;SDS011;18593;51.426;7.030;2023-11-19T07:48:18;28.58;;;4.88;;
32080;SDS011;18593;51.426;7.030;2023-11-19T07:50:50;39.25;;;6.30;;
32080;SDS011;18593;51.426;7.030;2023-11-19T07:53:19;24.07;;;5.00;;
32080;SDS011;18593;51.426;7.030;2023-11-19T07:55:48;38.40;;;5.97;;
32080;SDS011;18593;51.426;7.030;2023-11-19T07:58:16;30.35;;;5.60;;
32080;SDS011;18593;51.426;7.030;2023-11-19T08:00:44;40.47;;;5.78;;
32080;SDS011;18593;51.426;7.030;2023-11-19T08:03:11;43.38;;;5.75;;
32080;SDS011;18593;51.426;7.030;2023-11-19T08:05:39;35.63;;;6.32;;
32080;SDS011;18593;51.426;7.030;2023-11-19T08:08:08;30.23;;;5.15;;
32080;SDS011;18593;51.426;7.030;2023-11-19T08:10:36;37.60;;;6.20;;
32080;SDS011;18593;51.426;7.030;2023-11-19T08:13:06;37.58;;;5.00;;
32080;SDS011;18593;51.426;7.030;2023-11-19T08:15:34;34.25;;;5.13;;
32080;SDS011;18593;51.426;7.030;2023-11-19T08:18:01;35.25;;;5.97;;
32080;SDS011;18593;51.426;7.030;2023-11-19T08:20:30;32.88;;;4.88;;
32080;SDS011;18593;51.426;7.030;2023-11-19T08:22:58;40.40;;;5.32;;
32080;SDS011;18593;51.426;7.030;2023-11-19T08:25:26;34.30;;;5.13;;
32080;SDS011;18593;51.426;7.030;2023-11-19T08:27:54;35.80;;;6.10;;
32080;SDS011;18593;51.426;7.030;2023-11-19T08:30:43;36.63;;;5.30;;
32080;SDS011;18593;51.426;7.030;2023-11-19T08:33:10;39.65;;;5.78;;
32080;SDS011;18593;51.426;7.030;2023-11-19T08:35:38;38.35;;;6.03;;
32080;SDS011;18593;51.426;7.030;2023-11-19T08:38:05;39.60;;;6.53;;
32080;SDS011;18593;51.426;7.030;2023-11-19T08:40:34;40.67;;;6.18;;
32080;SDS011;18593;51.426;7.030;2023-11-19T08:43:02;41.65;;;5.47;;
32080;SDS011;18593;51.426;7.030;2023-11-19T08:45:30;40.20;;;6.22;;
32080;SDS011;18593;51.426;7.030;2023-11-19T08:47:57;43.60;;;8.60;;
32080;SDS011;18593;51.426;7.030;2023-11-19T08:50:25;36.65;;;6.28;;
32080;SDS011;18593;51.426;7.030;2023-11-19T08:52:52;35.72;;;5.68;;
32080;SDS011;18593;51.426;7.030;2023-11-19T08:55:22;42.55;;;7.63;;
32080;SDS011;18593;51.426;7.030;2023-11-19T09:00:21;38.08;;;6.13;;
32080;SDS011;18593;51.426;7.030;2023-11-19T09:02:49;37.05;;;5.80;;
32080;SDS011;18593;51.426;7.030;2023-11-19T09:05:16;42.33;;;6.07;;
32080;SDS011;18593;51.426;7.030;2023-11-19T09:07:44;34.78;;;5.38;;
32080;SDS011;18593;51.426;7.030;2023-11-19T09:10:12;32.97;;;5.60;;
32080;SDS011;18593;51.426;7.030;2023-11-19T09:12:39;34.40;;;5.88;;
32080;SDS011;18593;51.426;7.030;2023-11-19T09:15:09;40.63;;;6.20;;
32080;SDS011;18593;51.426;7.030;2023-11-19T09:17:38;35.53;;;5.32;;
32080;SDS011;18593;51.426;7.030;2023-11-19T09:20:06;34.58;;;6.43;;
32080;SDS011;18593;51.426;7.030;2023-11-19T09:22:40;39.90;;;5.93;;
32080;SDS011;18593;51.426;7.030;2023-11-19T09:25:07;36.67;;;6.30;;
32080;SDS011;18593;51.426;7.030;2023-11-19T09:27:36;44.47;;;6.10;;
32080;SDS011;18593;51.426;7.030;2023-11-19T09:30:05;40.28;;;5.57;;
32080;SDS011;18593;51.426;7.030;2023-11-19T09:32:36;27.88;;;5.80;;
32080;SDS011;18593;51.426;7.030;2023-11-19T09:35:04;34.60;;;5.43;;
32080;SDS011;18593;51.426;7.030;2023-11-19T09:37:38;44.45;;;6.20;;
32080;SDS011;18593;51.426;7.030;2023-11-19T09:40:07;37.47;;;6.32;;
32080;SDS011;18593;51.426;7.030;2023-11-19T09:42:38;36.28;;;5.13;;
32080;SDS011;18593;51.426;7.030;2023-11-19T09:45:12;38.30;;;6.00;;
32080;SDS011;18593;51.426;7.030;2023-11-19T09:50:27;27.88;;;5.07;;
32080;SDS011;18593;51.426;7.030;2023-11-19T09:52:58;30.98;;;5.88;;
32080;SDS011;18593;51.426;7.030;2023-11-19T09:57:57;39.40;;;6.05;;
32080;SDS011;18593;51.426;7.030;2023-11-19T10:00:35;37.92;;;5.88;;
32080;SDS011;18593;51.426;7.030;2023-11-19T10:05:52;29.92;;;5.40;;
32080;SDS011;18593;51.426;7.030;2023-11-19T10:08:24;38.15;;;5.70;;
32080;SDS011;18593;51.426;7.030;2023-11-19T10:10:52;49.97;;;6.07;;
32080;SDS011;18593;51.426;7.030;2023-11-19T10:13:26;36.53;;;5.43;;
32080;SDS011;18593;51.426;7.030;2023-11-19T10:15:54;37.58;;;6.10;;
32080;SDS011;18593;51.426;7.030;2023-11-19T10:18:26;31.95;;;5.10;;
32080;SDS011;18593;51.426;7.030;2023-11-19T10:20:54;39.45;;;6.65;;
32080;SDS011;18593;51.426;7.030;2023-11-19T10:23:22;32.85;;;5.45;;
32080;SDS011;18593;51.426;7.030;2023-11-19T10:25:52;39.10;;;5.88;;
32080;SDS011;18593;51.426;7.030;2023-11-19T10:28:20;34.65;;;6.57;;
32080;SDS011;18593;51.426;7.030;2023-11-19T10:30:47;38.88;;;6.47;;
32080;SDS011;18593;51.426;7.030;2023-11-19T10:33:15;32.17;;;5.50;;
32080;SDS011;18593;51.426;7.030;2023-11-19T10:35:53;35.80;;;5.65;;
32080;SDS011;18593;51.426;7.030;2023-11-19T10:38:22;37.38;;;6.00;;
32080;SDS011;18593;51.426;7.030;2023-11-19T10:40:52;32.45;;;6.40;;
32080;SDS011;18593;51.426;7.030;2023-11-19T10:43:21;36.58;;;6.13;;
32080;SDS011;18593;51.426;7.030;2023-11-19T10:45:51;47.95;;;6.78;;
32080;SDS011;18593;51.426;7.030;2023-11-19T10:48:18;37.08;;;5.95;;
32080;SDS011;18593;51.426;7.030;2023-11-19T10:50:50;28.88;;;4.88;;
32080;SDS011;18593;51.426;7.030;2023-11-19T10:53:21;37.08;;;6.20;;
32080;SDS011;18593;51.426;7.030;2023-11-19T10:55:53;29.35;;;5.70;;
32080;SDS011;18593;51.426;7.030;2023-11-19T10:58:26;40.08;;;6.65;;
32080;SDS011;18593;51.426;7.030;2023-11-19T11:00:57;34.63;;;6.03;;
32080;SDS011;18593;51.426;7.030;2023-11-19T11:06:03;33.45;;;5.03;;
32080;SDS011;18593;51.426;7.030;2023-11-19T11:08:32;28.77;;;5.47;;
32080;SDS011;18593;51.426;7.030;2023-11-19T11:11:04;36.38;;;5.97;;
32080;SDS011;18593;51.426;7.030;2023-11-19T11:13:35;36.38;;;5.65;;
32080;SDS011;18593;51.426;7.030;2023-11-19T11:16:09;34.67;;;5.57;;
32080;SDS011;18593;51.426;7.030;2023-11-19T11:18:37;37.47;;;5.55;;
32080;SDS011;18593;51.426;7.030;2023-11-19T11:21:08;28.88;;;5.60;;
32080;SDS011;18593;51.426;7.030;2023-11-19T11:23:53;31.75;;;5.43;;
32080;SDS011;18593;51.426;7.030;2023-11-19T11:26:43;29.83;;;5.13;;
32080;SDS011;18593;51.426;7.030;2023-11-19T11:29:54;37.20;;;5.80;;
32080;SDS011;18593;51.426;7.030;2023-11-19T11:32:33;34.78;;;5.93;;
32080;SDS011;18593;51.426;7.030;2023-11-19T11:35:14;29.33;;;5.07;;
32080;SDS011;18593;51.426;7.030;2023-11-19T11:37:59;27.48;;;5.65;;
32080;SDS011;18593;51.426;7.030;2023-11-19T11:40:30;31.67;;;5.47;;
32080;SDS011;18593;51.426;7.030;2023-11-19T11:42:58;34.13;;;5.30;;
32080;SDS011;18593;51.426;7.030;2023-11-19T11:45:35;30.55;;;5.43;;
32080;SDS011;18593;51.426;7.030;2023-11-19T11:48:10;31.40;;;5.93;;
32080;SDS011;18593;51.426;7.030;2023-11-19T11:50:49;27.55;;;4.72;;
32080;SDS011;18593;51.426;7.030;2023-11-19T11:53:21;26.17;;;4.30;;
32080;SDS011;18593;51.426;7.030;2023-11-19T11:58:27;24.38;;;4.47;;
32080;SDS011;18593;51.426;7.030;2023-11-19T12:01:01;30.73;;;5.15;;
32080;SDS011;18593;51.426;7.030;2023-11-19T12:03:32;31.38;;;5.35;;
32080;SDS011;18593;51.426;7.030;2023-11-19T12:06:01;31.13;;;5.55;;
32080;SDS011;18593;51.426;7.030;2023-11-19T12:08:31;26.08;;;4.65;;
32080;SDS011;18593;51.426;7.030;2023-11-19T12:11:02;29.50;;;4.53;;
32080;SDS011;18593;51.426;7.030;2023-11-19T12:13:46;31.55;;;5.45;;
32080;SDS011;18593;51.426;7.030;2023-11-19T12:16:20;24.38;;;4.88;;
32080;SDS011;18593;51.426;7.030;2023-11-19T12:18:48;27.67;;;5.53;;
32080;SDS011;18593;51.426;7.030;2023-11-19T12:21:27;29.13;;;5.20;;
32080;SDS011;18593;51.426;7.030;2023-11-19T12:23:59;28.08;;;5.18;;
32080;SDS011;18593;51.426;7.030;2023-11-19T12:26:39;25.52;;;4.88;;
32080;SDS011;18593;51.426;7.030;2023-11-19T12:29:07;24.77;;;4.40;;
32080;SDS011;18593;51.426;7.030;2023-11-19T12:31:35;28.45;;;5.00;;
32080;SDS011;18593;51.426;7.030;2023-11-19T12:34:09;35.75;;;5.10;;
32080;SDS011;18593;51.426;7.030;2023-11-19T12:36:43;29.77;;;4.78;;
32080;SDS011;18593;51.426;7.030;2023-11-19T12:39:12;28.92;;;5.22;;
32080;SDS011;18593;51.426;7.030;2023-11-19T12:41:50;24.08;;;4.50;;
32080;SDS011;18593;51.426;7.030;2023-11-19T12:44:19;25.50;;;4.18;;
32080;SDS011;18593;51.426;7.030;2023-11-19T12:46:59;27.15;;;5.10;;
32080;SDS011;18593;51.426;7.030;2023-11-19T12:49:31;27.52;;;4.55;;
32080;SDS011;18593;51.426;7.030;2023-11-19T12:51:59;22.33;;;4.40;;
32080;SDS011;18593;51.426;7.030;2023-11-19T12:54:35;25.00;;;4.47;;
32080;SDS011;18593;51.426;7.030;2023-11-19T12:57:04;25.83;;;4.85;;
32080;SDS011;18593;51.426;7.030;2023-11-19T12:59:33;19.27;;;3.50;;
32080;SDS011;18593;51.426;7.030;2023-11-19T13:02:01;24.67;;;3.72;;
32080;SDS011;18593;51.426;7.030;2023-11-19T13:04:30;25.17;;;4.45;;
32080;SDS011;18593;51.426;7.030;2023-11-19T13:06:59;20.42;;;3.80;;
32080;SDS011;18593;51.426;7.030;2023-11-19T13:09:29;25.60;;;3.55;;
32080;SDS011;18593;51.426;7.030;2023-11-19T13:11:58;22.45;;;3.83;;
32080;SDS011;18593;51.426;7.030;2023-11-19T13:14:35;22.63;;;4.00;;
32080;SDS011;18593;51.426;7.030;2023-11-19T13:17:04;18.15;;;3.15;;
32080;SDS011;18593;51.426;7.030;2023-11-19T13:19:33;25.15;;;3.90;;
32080;SDS011;18593;51.426;7.030;2023-11-19T13:22:01;17.27;;;2.95;;
32080;SDS011;18593;51.426;7.030;2023-11-19T13:24:29;17.77;;;3.78;;
32080;SDS011;18593;51.426;7.030;2023-11-19T13:26:58;17.42;;;3.38;;
32080;SDS011;18593;51.426;7.030;2023-11-19T13:29:33;15.85;;;3.28;;
32080;SDS011;18593;51.426;7.030;2023-11-19T13:32:01;18.77;;;3.30;;
32080;SDS011;18593;51.426;7.030;2023-11-19T13:34:29;18.92;;;3.40;;
32080;SDS011;18593;51.426;7.030;2023-11-19T13:36:57;26.55;;;4.32;;
32080;SDS011;18593;51.426;7.030;2023-11-19T13:39:24;22.58;;;3.70;;
32080;SDS011;18593;51.426;7.030;2023-11-19T13:41:52;29.40;;;5.15;;
32080;SDS011;18593;51.426;7.030;2023-11-19T13:44:21;28.48;;;4.55;;
32080;SDS011;18593;51.426;7.030;2023-11-19T13:46:48;24.23;;;4.47;;
32080;SDS011;18593;51.426;7.030;2023-11-19T13:49:16;28.40;;;4.60;;
32080;SDS011;18593;51.426;7.030;2023-11-19T13:51:45;23.83;;;4.32;;
32080;SDS011;18593;51.426;7.030;2023-11-19T13:54:13;25.55;;;4.53;;
32080;SDS011;18593;51.426;7.030;2023-11-19T13:56:41;25.15;;;4.55;;
32080;SDS011;18593;51.426;7.030;2023-11-19T13:59:09;22.80;;;4.50;;
32080;SDS011;18593;51.426;7.030;2023-11-19T14:01:38;31.30;;;4.85;;
32080;SDS011;18593;51.426;7.030;2023-11-19T14:04:06;30.35;;;4.65;;
32080;SDS011;18593;51.426;7.030;2023-11-19T14:06:35;24.50;;;4.50;;
32080;SDS011;18593;51.426;7.030;2023-11-19T14:09:03;23.67;;;4.40;;
32080;SDS011;18593;51.426;7.030;2023-11-19T14:11:31;23.70;;;4.28;;
32080;SDS011;18593;51.426;7.030;2023-11-19T14:13:59;23.83;;;4.32;;
32080;SDS011;18593;51.426;7.030;2023-11-19T14:16:26;30.27;;;4.57;;
32080;SDS011;18593;51.426;7.030;2023-11-19T14:18:56;28.17;;;4.07;;
32080;SDS011;18593;51.426;7.030;2023-11-19T14:21:24;23.52;;;4.30;;
32080;SDS011;18593;51.426;7.030;2023-11-19T14:23:51;26.05;;;4.55;;
32080;SDS011;18593;51.426;7.030;2023-11-19T14:26:19;25.00;;;4.60;;
32080;SDS011;18593;51.426;7.030;2023-11-19T14:28:47;23.52;;;4.20;;
32080;SDS011;18593;51.426;7.030;2023-11-19T14:31:14;27.88;;;5.10;;
32080;SDS011;18593;51.426;7.030;2023-11-19T14:33:42;25.80;;;4.18;;
32080;SDS011;18593;51.426;7.030;2023-11-19T14:36:11;24.40;;;4.22;;
32080;SDS011;18593;51.426;7.030;2023-11-19T14:38:39;24.20;;;4.72;;
32080;SDS011;18593;51.426;7.030;2023-11-19T14:41:07;26.88;;;5.45;;
32080;SDS011;18593;51.426;7.030;2023-11-19T14:43:34;29.10;;;5.00;;
32080;SDS011;18593;51.426;7.030;2023-11-19T14:46:03;20.50;;;4.05;;
32080;SDS011;18593;51.426;7.030;2023-11-19T14:48:31;24.92;;;4.75;;
32080;SDS011;18593;51.426;7.030;2023-11-19T14:50:59;29.05;;;4.93;;
32080;SDS011;18593;51.426;7.030;2023-11-19T14:53:30;19.83;;;4.25;;
32080;SDS011;18593;51.426;7.030;2023-11-19T14:55:58;23.05;;;4.43;;
32080;SDS011;18593;51.426;7.030;2023-11-19T14:58:26;21.60;;;4.25;;
32080;SDS011;18593;51.426;7.030;2023-11-19T15:00:53;27.08;;;4.60;;
32080;SDS011;18593;51.426;7.030;2023-11-19T15:03:21;19.75;;;4.20;;
32080;SDS011;18593;51.426;7.030;2023-11-19T15:05:48;22.15;;;4.20;;
32080;SDS011;18593;51.426;7.030;2023-11-19T15:08:16;21.98;;;3.80;;